Flight Track Log - Related Links

Times and Time Zones

All times are in EDT time to prevent confusion due to time zone crossing. See the SWA16 flight status page for this flight to view local times or setup timezone preferences in your user account.

Time Position Orientation Groundspeed Altitude Reporting Facility
EDT Latitude Longitude Course Direction KTS MPH feet Rate Location/Type
Fri 05:13:59 PM 36.0753 -115.1739 280° West 173 199 3,300  Level Los Angeles Center
Fri 05:14:19 PM 36.0772 -115.1881 280° West 186 214 3,500 1,683 Climbing Los Angeles Center
Fri 05:15:21 PM 36.0797 -115.2658 272° West 218 251 5,600 2,806 Climbing Los Angeles Center
Fri 05:16:23 PM 36.1433 -115.2942 340° North 253 291 9,300 3,168 Climbing Los Angeles Center
Fri 05:17:26 PM 36.1850 -115.2233 54° Northeast 267 307 12,200 2,640 Climbing Los Angeles Center
Fri 05:18:28 PM 36.1978 -115.0828 84° East 345 397 14,800 2,661 Climbing Los Angeles Center
Fri 05:19:30 PM 36.1992 -114.9514 89° East 373 429 17,700 2,868 Climbing Los Angeles Center
Fri 05:20:44 PM 36.2003 -114.7861 89° East 395 455 21,300 2,735 Climbing Los Angeles Center
Fri 05:21:46 PM 36.1997 -114.6431 90° East 409 471 23,900 2,226 Climbing Los Angeles Center
Fri 05:22:48 PM 36.1964 -114.4947 92° East 425 489 25,900 2,081 Climbing Los Angeles Center
Fri 05:23:50 PM 36.1967 -114.3100 90° East 442 509 28,200 1,968 Climbing Los Angeles Center
Fri 05:24:53 PM 36.2517 -114.1631 65° Northeast 462 532 30,000 1,680 Climbing Los Angeles Center
Fri 05:25:55 PM 36.3056 -114.0169 65° Northeast 465 535 31,700 1,742 Climbing Los Angeles Center
Fri 05:26:57 PM 36.3592 -113.8694 66° East 469 540 33,600 1,694 Climbing Los Angeles Center
Fri 05:27:59 PM 36.4136 -113.7231 65° Northeast 469 540 35,200 1,452 Climbing Los Angeles Center
Fri 05:29:01 PM 36.4675 -113.5767 65° Northeast 468 539 36,600 1,355 Climbing Los Angeles Center
Fri 05:30:03 PM 36.5317 -113.3992 66° East 468 539 38,000 1,161 Climbing Los Angeles Center
Fri 05:31:05 PM 36.5850 -113.2508 66° East 471 542 39,000 484 Climbing Los Angeles Center
Fri 05:32:07 PM 36.6378 -113.1028 66° East 470 541 39,000  Level Los Angeles Center
Fri 05:33:09 PM 36.6911 -112.9556 66° East 470 541 39,000  Level Los Angeles Center
Fri 05:34:11 PM 36.7442 -112.8106 65° Northeast 467 537 39,000  Level Los Angeles Center
Fri 05:35:13 PM 36.8064 -112.6358 66° East 464 534 39,000  Level Los Angeles Center
Fri 05:36:16 PM 36.8581 -112.4894 66° East 464 534 39,000  Level Los Angeles Center
Fri 05:37:18 PM 36.9103 -112.3428 66° East 465 535 39,000  Level Los Angeles Center
Fri 05:38:20 PM 36.9614 -112.1983 66° East 461 531 39,000  Level Los Angeles Center
Fri 05:39:26 PM 37.0242 -112.0194 66° East 466 536 39,000  Level Denver Center
Fri 05:40:28 PM 37.0767 -111.8722 66° East 466 536 39,000  Level Denver Center
Fri 05:41:30 PM 37.1272 -111.7239 67° East 466 536 39,000  Level Denver Center
Fri 05:42:32 PM 37.1783 -111.5767 66° East 464 534 39,000  Level Denver Center
Fri 05:43:34 PM 37.2267 -111.4281 68° East 466 536 39,000  Level Denver Center
Fri 05:44:36 PM 37.2881 -111.2494 67° East 467 537 39,000  Level Denver Center
Fri 05:45:38 PM 37.3389 -111.0989 67° East 468 539 39,000  Level Denver Center
Fri 05:46:40 PM 37.3883 -110.9500 67° East 466 536 39,000  Level Denver Center
Fri 05:47:42 PM 37.4394 -110.8008 67° East 465 535 39,000  Level Denver Center
Fri 05:48:44 PM 37.4883 -110.6508 68° East 465 535 39,000  Level Denver Center
Fri 05:49:46 PM 37.5450 -110.4817 67° East 462 532 39,000  Level Denver Center
Fri 05:50:48 PM 37.5922 -110.3375 68° East 464 534 39,000  Level Denver Center
Fri 05:51:50 PM 37.6475 -110.1694 67° East 464 534 39,000  Level Denver Center
Fri 05:52:52 PM 37.6944 -110.0256 68° East 463 533 39,000  Level Denver Center
Fri 05:53:54 PM 37.7489 -109.8547 68° East 467 537 39,000  Level Denver Center
Fri 05:54:56 PM 37.7967 -109.7106 67° East 466 536 39,000  Level Denver Center
Fri 05:55:58 PM 37.8500 -109.5400 68° East 466 536 39,000  Level Denver Center
Fri 05:57:00 PM 37.8969 -109.3936 68° East 469 540 39,000  Level Denver Center
Fri 05:58:02 PM 37.9431 -109.2472 68° East 468 539 39,000  Level Denver Center
Fri 05:59:04 PM 37.9897 -109.1036 68° East 461 531 39,000  Level Denver Center
Fri 06:00:06 PM 38.0425 -108.9328 69° East 465 535 39,000  Level Denver Center
Fri 06:01:08 PM 38.0967 -108.7544 69° East 473 544 39,000  Level Denver Center
Fri 06:02:10 PM 38.1414 -108.6114 68° East 461 531 39,000  Level Denver Center
Fri 06:03:12 PM 38.1942 -108.4425 68° East 461 531 39,000  Level Denver Center
Fri 06:04:14 PM 38.2383 -108.2981 69° East 461 531 39,000  Level Denver Center
Fri 06:05:28 PM 38.2897 -108.1275 69° East 462 532 39,000  Level Denver Center
Fri 06:06:30 PM 38.3419 -107.9581 69° East 462 532 39,000  Level Denver Center
Fri 06:07:32 PM 38.3942 -107.7844 69° East 469 540 39,000 -387 Level Denver Center
Fri 06:08:34 PM 38.4389 -107.6372 69° East 468 539 38,200 -871 Descending Denver Center
Fri 06:09:36 PM 38.5053 -107.4767 62° Northeast 461 531 37,200 -968 Descending Denver Center
Fri 06:10:38 PM 38.5661 -107.3403 60° Northeast 462 532 36,200 -1,016 Descending Denver Center
Fri 06:11:40 PM 38.6364 -107.1819 60° Northeast 461 531 35,100 -919 Descending Denver Center
Fri 06:12:42 PM 38.6936 -107.0553 60° Northeast 463 533 34,300 -871 Descending Denver Center
Fri 06:13:44 PM 38.7558 -106.9122 61° Northeast 462 532 33,300 -1,016 Descending Denver Center
Fri 06:14:46 PM 38.8328 -106.7386 60° Northeast 469 540 32,200 -971 Descending Denver Center
Fri 06:16:00 PM 38.9019 -106.5836 60° Northeast 470 541 31,100 -971 Descending Denver Center
Fri 06:17:02 PM 38.9750 -106.4264 59° Northeast 462 532 30,000 -1,113 Descending Denver Center
Fri 06:18:04 PM 39.0458 -106.2733 59° Northeast 447 514 28,800 -1,065 Descending Denver Center
Fri 06:19:06 PM 39.1083 -106.1297 61° Northeast 442 509 27,800 -1,258 Descending Denver Center
Fri 06:20:08 PM 39.1692 -105.9947 60° Northeast 435 501 26,200 -1,776 Descending Denver Center
Fri 06:21:11 PM 39.2261 -105.8642 61° Northeast 417 480 24,100 -2,016 Descending Denver Center
Fri 06:22:13 PM 39.2806 -105.7394 61° Northeast 399 459 22,000 -1,790 Descending Denver Center
Fri 06:23:15 PM 39.3339 -105.6183 60° Northeast 386 444 20,400 -1,500 Descending Denver Center
Fri 06:24:17 PM 39.3833 -105.5053 60° Northeast 365 420 18,900 -1,317 Descending Denver Center
Fri 06:25:18 PM 39.4000 -105.3978 79° East 352 405 17,700 -1,452 Descending Denver Center
Fri 06:26:21 PM 39.4053 -105.2500 87° East 333 383 15,900 -1,680 Descending Denver Center
Fri 06:27:23 PM 39.4119 -105.1228 86° East 329 379 14,200 -1,258 Descending Denver Center
Fri 06:28:25 PM 39.4164 -105.0103 87° East 314 361 13,300 -1,016 Descending Denver Center
Fri 06:29:27 PM 39.4581 -104.9044 63° Northeast 316 364 12,100 -629 Descending Denver Center
Fri 06:30:29 PM 39.5017 -104.8194 56° Northeast 282 325 12,000 -441 Descending Denver Center
Fri 06:31:43 PM 39.5672 -104.7769 27° Northeast 245 282 11,100 -1,147 Descending Denver Center
Fri 06:32:45 PM 39.6411 -104.7311 26° Northeast 240 276 9,400 -1,355 Descending Denver Center
Fri 06:33:47 PM 39.6947 -104.6964 26° Northeast 218 251 8,300 -1,113 Descending Denver Center
Fri 06:34:49 PM 39.7461 -104.6678 23° Northeast 188 216 7,100 -968 Descending Denver Center
Fri 06:35:51 PM 39.7878 -104.6608 North 154 177 6,300 -823 Descending Denver Center
Fri 06:36:53 PM 39.8314 -104.6611 360° North 147 169 5,400 -871 Descending Denver Center
Fri 06:38:00 PM 39.8500 -104.6667 North  Level FlightAware Approximate
Fri 06:45:00 PM 39.8617 -104.6732 North  Level Estimated
Fri 06:46:00 PM 39.8617 -104.6732 North  Level Estimated
Fri 06:47:00 PM 39.8617 -104.6732 North  Level Estimated

Login

Don't have an account? Register now (free) for customized features, flight alerts, and more!